Etusivu
METAR-TAF:

METAR-TAF

Lentoasemat :

Big Trout Lake, Ontario, Kanada

Leveyspiiri: 53-50N, Pituuspiiri: 089-52W, korkeus merenpinnasta: 224 m

Tämänhetkinen sää

Tämä raportti tehtiin 1 tunti ja 2 minuuttia sitten, kello 07.00 UTC
Tuuli 2 kn etelästä/kaakosta
Lämpötila -3°C
Kosteus 68%
Ilmanpaine 1025 hPa
Näkyvyys: 14.5 km
selkeää

METAR: CYTL 220700Z AUTO 15002KT 9SM CLR M03/M08 A3027 RMK SLP268

Aika: 03:02 (08:02 UTC)

Sääennuste

Tämä raportti tehtiin 24 minuuttia sitten, kello 07.38 UTC
Ennuste voimassa 22. päivästä klo 08 UTC - 22. päivään klo 20 UTC
Tuuli 7 kn kaakosta
Näkyvyys: 10 km
Hajonneita pilviä 8000 ft:n korkeudessa
From 22. päivästä klo 1600 UTC
Tuuli 3 kn eri suunnista
Näkyvyys: 10 km
Hajanaisia pilviä 10000 ft:n korkeudessa

TAF: CYTL 220738Z 2208/2220 13007KT P6SM BKN080 FM221600 VRB03KT P6SM SCT100 RMK FCST BASED ON AUTO OBS. NXT FCST BY 221400Z

Säähavainnot ja -ennusteet yli 4000 lentoasemalta (METAR- ja TAF-raportit).

Käytössä olevat sääasemat on merkitty karttaan keltaisilla ja punaisilla pisteillä.

Aseta hiiri pisteen päälle nähdäksesi sääaseman nimen.

Klikkaa sitten nähdäksesi säähavainnot ja -ennusteet.

Kartan vaihtaminen: klikkaa mustalla rastilla varustettuja vihreitä pisteitä, niin voit zoomata sisään; viivalla varustettua vihreää pistettä, niin voit zoomata ulos tai vihreitä nuolia, niin pääset viereisille kartoille.


METAR-TAF: